createdAt,value
2023-04-15T00:00:29.534Z,20.91
2023-04-15T00:05:23.393Z,21.17
2023-04-15T00:10:16.225Z,21.17
2023-04-15T00:15:13.382Z,21.05
2023-04-15T00:20:07.419Z,21.21
2023-04-15T00:25:01.888Z,20.98
2023-04-15T00:29:55.207Z,21.22
2023-04-15T00:34:47.859Z,21.26
2023-04-15T00:39:40.886Z,21.23
2023-04-15T00:44:33.977Z,21.13
2023-04-15T00:49:27.554Z,21.25
2023-04-15T00:54:20.491Z,21.13
2023-04-15T00:59:13.237Z,21.21
2023-04-15T01:04:06.941Z,21.22
2023-04-15T01:09:00.762Z,20.93
2023-04-15T01:13:54.556Z,21.00
2023-04-15T01:18:47.744Z,21.03
2023-04-15T01:23:41.969Z,21.21
2023-04-15T01:28:36.271Z,21.15
2023-04-15T01:33:30.007Z,20.88
2023-04-15T01:38:23.994Z,21.13
2023-04-15T01:43:17.090Z,21.13
2023-04-15T01:48:10.338Z,20.82
2023-04-15T01:53:03.978Z,21.04
2023-04-15T01:57:56.300Z,20.93
2023-04-15T02:02:49.972Z,20.90
2023-04-15T02:07:47.557Z,20.88
2023-04-15T02:12:40.495Z,21.04
2023-04-15T02:17:38.334Z,21.00
2023-04-15T02:22:31.143Z,20.93
2023-04-15T02:27:24.592Z,20.91
2023-04-15T02:32:18.143Z,21.06
2023-04-15T02:37:14.162Z,21.06
2023-04-15T02:42:07.111Z,20.93
2023-04-15T02:46:59.774Z,21.05
2023-04-15T02:51:52.225Z,21.14
2023-04-15T02:56:46.216Z,20.86
2023-04-15T03:01:39.702Z,20.96
2023-04-15T03:06:33.582Z,21.12
2023-04-15T03:11:28.374Z,20.96
2023-04-15T03:16:21.958Z,21.09
2023-04-15T03:21:15.456Z,20.90
2023-04-15T03:26:09.237Z,21.05
2023-04-15T03:31:02.819Z,21.15
2023-04-15T03:35:56.600Z,21.14
2023-04-15T03:40:49.633Z,21.27
2023-04-15T03:45:42.762Z,21.14
2023-04-15T03:50:35.970Z,21.20
2023-04-15T03:55:29.999Z,21.20
2023-04-15T04:00:23.885Z,21.04
2023-04-15T04:05:17.623Z,21.15
2023-04-15T04:10:11.777Z,20.88
2023-04-15T04:15:07.413Z,20.88
2023-04-15T04:20:00.638Z,21.08
2023-04-15T04:24:54.244Z,21.05
2023-04-15T04:29:48.386Z,21.03
2023-04-15T04:34:41.644Z,21.01
2023-04-15T04:39:35.012Z,20.99
2023-04-15T04:44:28.352Z,20.82
2023-04-15T04:49:21.777Z,20.94
2023-04-15T04:54:15.334Z,20.82
2023-04-15T04:59:08.488Z,20.90
2023-04-15T05:04:03.671Z,20.88
2023-04-15T05:08:57.529Z,20.88
2023-04-15T05:13:54.520Z,20.73
2023-04-15T05:18:48.299Z,20.74
2023-04-15T05:23:41.683Z,20.78
2023-04-15T05:28:35.139Z,20.85
2023-04-15T05:33:28.310Z,20.86
2023-04-15T05:38:21.746Z,20.88
2023-04-15T05:43:15.572Z,20.63
2023-04-15T05:48:09.347Z,20.80
2023-04-15T05:53:04.804Z,20.74
2023-04-15T05:57:57.974Z,20.87
2023-04-15T06:02:52.357Z,20.83
2023-04-15T06:07:46.127Z,20.80
2023-04-15T06:12:41.048Z,20.63
2023-04-15T06:17:35.361Z,20.73
2023-04-15T06:22:28.133Z,20.64
2023-04-15T06:27:21.407Z,20.74
2023-04-15T06:32:14.468Z,20.66
2023-04-15T06:37:07.301Z,20.56
2023-04-15T06:42:00.800Z,20.85
2023-04-15T06:46:54.340Z,20.72
2023-04-15T06:51:47.878Z,20.86
2023-04-15T06:56:42.871Z,20.87
2023-04-15T07:01:36.447Z,20.87
2023-04-15T07:06:29.803Z,20.70
2023-04-15T07:11:22.416Z,20.86
2023-04-15T07:16:15.715Z,20.97
2023-04-15T07:21:08.561Z,20.98
2023-04-15T07:26:02.004Z,20.87
2023-04-15T07:30:56.151Z,20.76
2023-04-15T07:35:49.483Z,20.89
2023-04-15T07:40:42.487Z,20.88
2023-04-15T07:45:36.270Z,20.91
2023-04-15T07:50:29.117Z,20.86
2023-04-15T07:55:28.148Z,20.85
2023-04-15T08:00:21.732Z,20.73
2023-04-15T08:05:16.027Z,20.85
2023-04-15T08:10:10.834Z,20.79
2023-04-15T08:15:04.682Z,20.84
2023-04-15T08:19:57.870Z,20.84
2023-04-15T08:24:55.178Z,20.74
2023-04-15T08:29:48.134Z,20.83
2023-04-15T08:34:42.259Z,20.91
2023-04-15T08:39:35.050Z,20.75
2023-04-15T08:44:32.194Z,20.90
2023-04-15T08:49:28.848Z,20.80
2023-04-15T08:54:21.562Z,21.04
2023-04-15T08:59:14.061Z,21.08
2023-04-15T09:04:09.138Z,21.08
2023-04-15T09:09:03.391Z,20.94
2023-04-15T09:13:57.692Z,21.09
2023-04-15T09:18:51.187Z,20.92
2023-04-15T09:24:04.725Z,21.08
2023-04-15T09:29:10.584Z,20.88
2023-04-15T09:34:03.918Z,19.85
2023-04-15T09:39:01.395Z,19.70
2023-04-15T09:43:55.144Z,19.38
2023-04-15T09:48:48.960Z,19.85
2023-04-15T09:53:41.843Z,19.30
2023-04-15T09:58:36.293Z,18.95
2023-04-15T10:03:35.895Z,19.01
2023-04-15T10:08:31.184Z,19.20
2023-04-15T10:13:30.252Z,19.64
2023-04-15T10:18:26.586Z,19.52
2023-04-15T10:23:19.762Z,18.93
2023-04-15T10:28:13.093Z,18.99
2023-04-15T10:33:07.175Z,19.66
2023-04-15T10:38:00.497Z,19.98
2023-04-15T10:42:55.109Z,19.85
2023-04-15T10:47:47.576Z,20.12
2023-04-15T10:52:43.775Z,20.00
2023-04-15T10:57:40.748Z,20.20
2023-04-15T11:02:48.970Z,20.29
2023-04-15T11:07:50.263Z,20.36
2023-04-15T11:12:44.709Z,20.36
2023-04-15T11:17:37.512Z,20.35
2023-04-15T11:22:31.025Z,20.43
2023-04-15T11:27:24.023Z,20.33
2023-04-15T11:32:17.314Z,20.51
2023-04-15T11:37:10.922Z,20.43
2023-04-15T11:42:04.518Z,20.42
2023-04-15T11:46:57.922Z,20.43
2023-04-15T11:51:51.355Z,20.56
2023-04-15T11:56:51.341Z,20.59
2023-04-15T12:01:44.402Z,20.62
2023-04-15T12:06:38.951Z,20.51
2023-04-15T12:11:53.912Z,20.62
2023-04-15T12:16:51.760Z,20.46
2023-04-15T12:21:50.065Z,20.63
2023-04-15T12:26:52.057Z,20.45
2023-04-15T12:31:53.363Z,20.53
2023-04-15T12:36:51.527Z,20.44
2023-04-15T12:41:43.843Z,20.52
2023-04-15T12:46:36.443Z,20.55
2023-04-15T12:51:29.553Z,20.42
2023-04-15T12:56:22.116Z,20.54
2023-04-15T13:01:15.351Z,20.48
2023-04-15T13:06:09.265Z,20.55
2023-04-15T13:11:01.321Z,20.55
2023-04-15T13:15:54.568Z,20.59
2023-04-15T13:20:48.633Z,20.61
2023-04-15T13:25:42.605Z,20.62
2023-04-15T13:30:34.453Z,20.60
2023-04-15T13:35:28.057Z,20.63
2023-04-15T13:40:20.891Z,20.63
2023-04-15T13:45:13.969Z,20.47
2023-04-15T13:50:08.322Z,20.61
2023-04-15T13:55:06.944Z,20.48
2023-04-15T14:00:13.118Z,20.44
2023-04-15T14:05:07.016Z,20.45
2023-04-15T14:10:00.849Z,20.55
2023-04-15T14:14:54.735Z,20.54
2023-04-15T14:19:47.052Z,20.59
2023-04-15T14:24:40.809Z,20.40
2023-04-15T14:29:34.259Z,20.57
2023-04-15T14:34:26.966Z,20.39
2023-04-15T14:39:21.338Z,20.54
2023-04-15T14:44:14.340Z,20.54
2023-04-15T14:49:07.973Z,20.28
2023-04-15T14:54:01.180Z,20.54
2023-04-15T14:58:54.812Z,20.56
2023-04-15T15:03:46.828Z,20.43
2023-04-15T15:08:39.894Z,20.60
2023-04-15T15:13:32.781Z,20.52
2023-04-15T15:18:26.288Z,20.47
2023-04-15T15:23:19.975Z,20.58
2023-04-15T15:28:12.159Z,20.57
2023-04-15T15:33:05.589Z,20.54
2023-04-15T15:37:59.092Z,20.66
2023-04-15T15:42:51.728Z,20.63
2023-04-15T15:47:44.757Z,20.73
2023-04-15T15:52:37.204Z,20.63
2023-04-15T15:57:31.294Z,20.77
2023-04-15T16:02:45.845Z,20.76
2023-04-15T16:07:39.845Z,20.73
2023-04-15T16:12:34.821Z,20.62
2023-04-15T16:17:28.094Z,20.53
2023-04-15T16:22:20.285Z,20.75
2023-04-15T16:27:16.238Z,20.90
2023-04-15T16:32:09.486Z,20.93
2023-04-15T16:37:04.285Z,20.86
2023-04-15T16:41:58.497Z,20.80
2023-04-15T16:46:51.535Z,20.85
2023-04-15T16:51:44.931Z,20.81
2023-04-15T16:56:37.152Z,20.53
2023-04-15T17:01:31.128Z,20.57
2023-04-15T17:06:23.717Z,20.64
2023-04-15T17:11:17.450Z,20.67
2023-04-15T17:16:09.723Z,20.67
2023-04-15T17:21:03.873Z,20.85
2023-04-15T17:25:58.253Z,20.85
2023-04-15T17:30:51.537Z,20.77
2023-04-15T17:35:45.521Z,20.92
2023-04-15T17:40:38.003Z,20.93
2023-04-15T17:45:31.752Z,20.77
2023-04-15T17:50:24.416Z,20.94
2023-04-15T17:55:17.781Z,20.71
2023-04-15T18:00:12.402Z,20.78
2023-04-15T18:05:06.801Z,20.86
2023-04-15T18:09:59.575Z,20.90
2023-04-15T18:14:52.148Z,21.15
2023-04-15T18:19:46.487Z,21.20
2023-04-15T18:24:40.874Z,21.22
2023-04-15T18:29:39.881Z,21.09
2023-04-15T18:34:33.255Z,21.07
2023-04-15T18:39:27.411Z,21.07
2023-04-15T18:44:20.930Z,20.95
2023-04-15T18:49:14.489Z,20.89
2023-04-15T18:54:07.463Z,21.01
2023-04-15T18:59:27.550Z,20.99
2023-04-15T19:04:12.910Z,20.91
2023-04-15T19:09:07.200Z,20.94
2023-04-15T19:14:00.879Z,21.01
2023-04-15T19:18:53.700Z,20.88
2023-04-15T19:23:45.888Z,21.01
2023-04-15T19:28:38.839Z,21.05
2023-04-15T19:33:32.933Z,20.83
2023-04-15T19:38:27.428Z,21.04
2023-04-15T19:43:21.376Z,20.93
2023-04-15T19:48:14.463Z,20.97
2023-04-15T19:53:07.607Z,21.07
2023-04-15T19:58:01.843Z,20.96
2023-04-15T20:02:58.319Z,20.93
2023-04-15T20:07:55.437Z,20.94
2023-04-15T20:12:52.675Z,21.11
2023-04-15T20:17:47.440Z,21.14
2023-04-15T20:22:40.672Z,21.08
2023-04-15T20:27:34.043Z,21.05
2023-04-15T20:32:28.623Z,21.16
2023-04-15T20:37:23.213Z,21.15
2023-04-15T20:42:16.194Z,21.17
2023-04-15T20:47:09.768Z,21.19
2023-04-15T20:52:03.106Z,21.18
2023-04-15T20:56:58.053Z,21.09
2023-04-15T21:01:51.170Z,21.11
2023-04-15T21:06:44.942Z,21.16
2023-04-15T21:11:57.427Z,21.14
2023-04-15T21:16:51.684Z,20.98
2023-04-15T21:21:46.611Z,21.11
2023-04-15T21:26:40.209Z,21.09
2023-04-15T21:31:34.742Z,21.19
2023-04-15T21:36:29.221Z,20.96
2023-04-15T21:41:23.274Z,21.22
2023-04-15T21:46:24.048Z,21.12
2023-04-15T21:51:17.652Z,21.14
2023-04-15T21:56:11.487Z,21.19
2023-04-15T22:01:06.665Z,21.03
2023-04-15T22:06:01.255Z,21.33
2023-04-15T22:10:54.817Z,21.31
2023-04-15T22:15:48.928Z,21.19
2023-04-15T22:20:42.145Z,21.33
2023-04-15T22:25:39.504Z,21.36
2023-04-15T22:30:33.376Z,21.26
2023-04-15T22:35:26.948Z,21.35
2023-04-15T22:40:21.301Z,21.40
2023-04-15T22:45:14.796Z,21.39
2023-04-15T22:50:08.033Z,21.40
2023-04-15T22:55:00.747Z,21.24
2023-04-15T22:59:54.788Z,21.41
2023-04-15T23:04:47.802Z,21.40
2023-04-15T23:09:41.814Z,21.41
2023-04-15T23:14:34.465Z,21.44
2023-04-15T23:19:28.071Z,21.28
2023-04-15T23:24:23.031Z,21.29
2023-04-15T23:29:15.864Z,21.31
2023-04-15T23:34:09.865Z,21.31
2023-04-15T23:39:02.449Z,21.42
2023-04-15T23:43:55.027Z,21.50
2023-04-15T23:48:49.735Z,21.37
2023-04-15T23:53:42.463Z,21.47
2023-04-15T23:58:36.600Z,21.48
